createdAt,value
2023-01-11T00:00:26.556Z,15.18
2023-01-11T00:00:57.917Z,16.50
2023-01-11T00:01:29.301Z,17.38
2023-01-11T00:02:00.784Z,15.63
2023-01-11T00:02:32.334Z,15.98
2023-01-11T00:03:04.824Z,17.05
2023-01-11T00:03:36.223Z,17.98
2023-01-11T00:04:07.615Z,16.02
2023-01-11T00:04:38.993Z,19.00
2023-01-11T00:05:10.383Z,14.60
2023-01-11T00:05:42.376Z,16.40
2023-01-11T00:06:13.761Z,13.52
2023-01-11T00:06:45.314Z,15.98
2023-01-11T00:07:16.754Z,16.63
2023-01-11T00:07:48.123Z,18.15
2023-01-11T00:08:19.467Z,17.13
2023-01-11T00:08:50.844Z,15.52
2023-01-11T00:09:22.280Z,16.13
2023-01-11T00:09:53.602Z,15.73
2023-01-11T00:10:24.956Z,17.03
2023-01-11T00:10:56.290Z,16.88
2023-01-11T00:11:27.671Z,15.35
2023-01-11T00:11:59.063Z,16.25
2023-01-11T00:12:31.005Z,17.13
2023-01-11T00:13:02.805Z,17.27
2023-01-11T00:13:34.195Z,17.15
2023-01-11T00:14:05.576Z,18.23
2023-01-11T00:14:36.961Z,17.38
2023-01-11T00:15:08.654Z,16.27
2023-01-11T00:15:40.136Z,16.88
2023-01-11T00:16:11.810Z,15.77
2023-01-11T00:16:43.345Z,17.27
2023-01-11T00:17:14.764Z,17.23
2023-01-11T00:17:46.150Z,17.17
2023-01-11T00:18:17.524Z,15.75
2023-01-11T00:18:48.925Z,17.05
2023-01-11T00:19:20.328Z,15.63
2023-01-11T00:19:51.742Z,16.17
2023-01-11T00:20:23.592Z,16.83
2023-01-11T00:20:54.976Z,16.40
2023-01-11T00:21:26.315Z,16.58
2023-01-11T00:21:57.699Z,17.13
2023-01-11T00:22:29.136Z,15.40
2023-01-11T00:23:00.577Z,16.15
2023-01-11T00:23:35.960Z,15.25
2023-01-11T00:24:07.556Z,15.75
2023-01-11T00:24:38.932Z,15.70
2023-01-11T00:25:10.314Z,17.30
2023-01-11T00:25:41.715Z,16.42
2023-01-11T00:26:13.381Z,16.55
2023-01-11T00:26:44.852Z,16.33
2023-01-11T00:27:16.218Z,15.55
2023-01-11T00:27:47.586Z,17.33
2023-01-11T00:28:18.937Z,14.90
2023-01-11T00:28:50.698Z,16.38
2023-01-11T00:29:22.225Z,15.40
2023-01-11T00:29:53.611Z,17.70
2023-01-11T00:30:24.995Z,16.02
2023-01-11T00:30:56.389Z,16.13
2023-01-11T00:31:27.856Z,15.98
2023-01-11T00:31:59.312Z,14.93
2023-01-11T00:32:30.697Z,15.75
2023-01-11T00:33:02.284Z,16.80
2023-01-11T00:33:33.724Z,14.73
2023-01-11T00:34:05.157Z,15.77
2023-01-11T00:34:36.597Z,16.17
2023-01-11T00:35:08.295Z,16.48
2023-01-11T00:35:39.679Z,16.52
2023-01-11T00:36:11.032Z,17.65
2023-01-11T00:36:42.469Z,15.20
2023-01-11T00:37:13.834Z,13.85
2023-01-11T00:37:45.184Z,15.35
2023-01-11T00:38:16.555Z,14.85
2023-01-11T00:38:48.041Z,14.02
2023-01-11T00:39:19.428Z,14.90
2023-01-11T00:39:50.815Z,14.48
2023-01-11T00:40:22.199Z,14.27
2023-01-11T00:40:53.557Z,15.77
2023-01-11T00:41:24.931Z,15.73
2023-01-11T00:41:56.429Z,16.10
2023-01-11T00:42:28.130Z,17.92
2023-01-11T00:42:59.909Z,16.08
2023-01-11T00:43:31.340Z,18.00
2023-01-11T00:44:03.391Z,16.10
2023-01-11T00:44:34.725Z,15.02
2023-01-11T00:45:06.417Z,17.35
2023-01-11T00:45:37.796Z,15.93
2023-01-11T00:46:09.298Z,14.07
2023-01-11T00:46:40.725Z,15.13
2023-01-11T00:47:16.324Z,16.25
2023-01-11T00:47:47.803Z,16.13
2023-01-11T00:48:19.246Z,13.88
2023-01-11T00:48:50.652Z,15.63
2023-01-11T00:49:22.342Z,14.77
2023-01-11T00:49:53.712Z,14.52
2023-01-11T00:50:26.067Z,15.00
2023-01-11T00:50:57.562Z,15.25
2023-01-11T00:51:28.937Z,15.52
2023-01-11T00:52:00.417Z,15.38
2023-01-11T00:52:31.835Z,14.20
2023-01-11T00:53:03.658Z,14.63
2023-01-11T00:53:35.033Z,15.50
2023-01-11T00:54:06.395Z,11.93
2023-01-11T00:54:38.495Z,14.53
2023-01-11T00:55:12.211Z,14.52
2023-01-11T00:55:43.611Z,13.23
2023-01-11T00:56:15.008Z,15.35
2023-01-11T00:56:46.487Z,14.57
2023-01-11T00:57:17.863Z,14.35
2023-01-11T00:57:50.529Z,15.05
2023-01-11T00:58:21.921Z,15.23
2023-01-11T00:58:53.313Z,14.10
2023-01-11T00:59:24.752Z,15.10
2023-01-11T00:59:56.184Z,14.15
2023-01-11T01:01:13.473Z,13.18
2023-01-11T01:01:44.941Z,12.93
2023-01-11T01:02:16.431Z,15.13
2023-01-11T01:02:48.360Z,13.38
2023-01-11T01:03:19.758Z,14.65
2023-01-11T01:03:51.205Z,14.32
2023-01-11T01:04:22.657Z,12.85
2023-01-11T01:04:54.892Z,12.23
2023-01-11T01:05:26.277Z,13.65
2023-01-11T01:05:57.684Z,15.10
2023-01-11T01:06:29.396Z,14.77
2023-01-11T01:07:00.847Z,15.32
2023-01-11T01:07:32.290Z,12.83
2023-01-11T01:08:03.719Z,16.73
2023-01-11T01:08:35.193Z,13.15
2023-01-11T01:09:06.648Z,14.93
2023-01-11T01:09:38.086Z,14.65
2023-01-11T01:10:10.797Z,13.77
2023-01-11T01:10:42.188Z,14.85
2023-01-11T01:11:13.609Z,14.40
2023-01-11T01:11:45.116Z,16.08
2023-01-11T01:12:16.551Z,14.20
2023-01-11T01:12:48.243Z,13.57
2023-01-11T01:13:19.679Z,14.55
2023-01-11T01:13:51.065Z,14.05
2023-01-11T01:14:22.509Z,13.70
2023-01-11T01:14:53.887Z,14.43
2023-01-11T01:15:25.379Z,15.43
2023-01-11T01:15:57.481Z,15.93
2023-01-11T01:16:28.970Z,12.32
2023-01-11T01:17:01.621Z,14.93
2023-01-11T01:17:33.073Z,15.98
2023-01-11T01:18:06.810Z,15.40
2023-01-11T01:18:38.198Z,12.88
2023-01-11T01:19:09.546Z,14.35
2023-01-11T01:19:43.262Z,14.93
2023-01-11T01:20:14.954Z,14.48
2023-01-11T01:20:49.790Z,15.30
2023-01-11T01:21:21.168Z,14.63
2023-01-11T01:27:44.603Z,13.77
2023-01-11T01:28:16.513Z,13.65
2023-01-11T01:28:47.956Z,14.20
2023-01-11T01:29:19.338Z,13.85
2023-01-11T01:29:50.777Z,14.00
2023-01-11T01:30:22.156Z,14.13
2023-01-11T01:30:53.875Z,14.65
2023-01-11T01:31:25.322Z,14.52
2023-01-11T01:31:56.777Z,13.03
2023-01-11T01:32:28.164Z,15.25
2023-01-11T01:32:59.553Z,15.02
2023-01-11T01:33:30.942Z,15.30
2023-01-11T01:34:02.323Z,15.57
2023-01-11T01:34:33.710Z,14.38
2023-01-11T01:35:05.247Z,13.97
2023-01-11T01:35:37.658Z,14.77
2023-01-11T01:36:09.455Z,14.27
2023-01-11T01:36:40.808Z,15.43
2023-01-11T01:37:12.229Z,15.73
2023-01-11T01:37:43.955Z,17.02
2023-01-11T01:38:15.412Z,17.48
2023-01-11T01:38:46.858Z,17.77
2023-01-11T01:39:18.280Z,17.42
2023-01-11T01:39:49.676Z,15.80
2023-01-11T01:40:21.053Z,17.20
2023-01-11T01:40:52.442Z,16.88
2023-01-11T01:41:23.837Z,16.67
2023-01-11T01:41:55.212Z,15.55
2023-01-11T01:42:26.624Z,17.33
2023-01-11T01:42:58.045Z,15.90
2023-01-11T01:43:48.277Z,15.57
2023-01-11T01:44:38.080Z,15.00
2023-01-11T01:45:22.572Z,17.43
2023-01-11T01:45:53.923Z,15.55
2023-01-11T01:46:29.881Z,16.60
2023-01-11T01:47:03.037Z,17.33
2023-01-11T01:47:43.685Z,17.80
2023-01-11T01:48:24.386Z,15.15
2023-01-11T01:48:58.905Z,16.27
2023-01-11T01:49:30.897Z,16.10
2023-01-11T01:50:06.372Z,17.55
2023-01-11T01:50:46.441Z,15.20
2023-01-11T01:51:36.545Z,15.23
2023-01-11T01:52:08.770Z,14.10
2023-01-11T01:52:40.678Z,16.98
2023-01-11T01:53:17.070Z,13.45
2023-01-11T01:53:49.665Z,15.82
2023-01-11T01:54:24.586Z,16.35
2023-01-11T01:54:57.771Z,17.05
2023-01-11T01:55:31.560Z,14.43
2023-01-11T01:56:05.866Z,15.98
2023-01-11T01:56:43.703Z,14.13
2023-01-11T01:57:21.229Z,16.77
2023-01-11T01:57:53.279Z,14.65
2023-01-11T01:58:29.786Z,15.48
2023-01-11T01:59:02.874Z,13.98
2023-01-11T01:59:34.413Z,12.82
2023-01-11T02:00:07.217Z,14.23
2023-01-11T02:00:39.887Z,13.38
2023-01-11T02:01:13.271Z,15.30
2023-01-11T02:01:45.354Z,14.05
2023-01-11T02:02:16.930Z,13.53
2023-01-11T02:02:49.117Z,15.32
2023-01-11T02:03:25.217Z,12.65
2023-01-11T02:03:56.743Z,15.70
2023-01-11T02:04:33.625Z,13.88
2023-01-11T02:05:05.622Z,13.23
2023-01-11T02:05:37.110Z,13.38
2023-01-11T02:06:08.449Z,13.70
2023-01-11T02:06:40.400Z,13.77
2023-01-11T02:07:11.784Z,12.40
2023-01-11T02:07:43.574Z,13.13
2023-01-11T02:08:22.591Z,13.73
2023-01-11T02:08:58.848Z,13.75
2023-01-11T02:09:36.273Z,13.27
2023-01-11T02:10:07.601Z,14.13
2023-01-11T02:10:39.041Z,14.13
2023-01-11T02:11:11.481Z,15.60
2023-01-11T02:11:43.557Z,17.13
2023-01-11T02:12:15.252Z,13.40
2023-01-11T02:12:51.601Z,14.30
2023-01-11T02:13:23.036Z,13.50
2023-01-11T02:13:54.786Z,15.07
2023-01-11T02:14:27.904Z,14.18
2023-01-11T02:15:00.424Z,14.85
2023-01-11T02:15:32.279Z,12.98
2023-01-11T02:16:03.776Z,12.30
2023-01-11T02:16:35.347Z,13.25
2023-01-11T02:17:06.730Z,13.10
2023-01-11T02:17:38.194Z,14.88
2023-01-11T02:18:11.148Z,12.18
2023-01-11T02:18:42.530Z,14.50
2023-01-11T02:19:37.169Z,12.80
2023-01-11T02:20:17.865Z,13.48
2023-01-11T02:21:15.569Z,13.68
2023-01-11T02:22:04.367Z,12.80
2023-01-11T02:22:41.533Z,12.43
2023-01-11T02:23:31.406Z,12.07
2023-01-11T02:24:21.401Z,13.20
2023-01-11T02:25:08.222Z,14.45
2023-01-11T02:25:58.405Z,13.07
2023-01-11T02:26:51.086Z,12.85
2023-01-11T02:27:41.321Z,13.95
2023-01-11T02:28:31.552Z,12.90
2023-01-11T02:29:13.125Z,15.10
2023-01-11T02:29:47.218Z,12.82
2023-01-11T02:30:37.425Z,12.45
2023-01-11T02:31:19.858Z,14.38
2023-01-11T02:32:00.491Z,13.18
2023-01-11T02:32:34.605Z,12.77
2023-01-11T02:33:15.241Z,14.45
2023-01-11T02:33:46.581Z,13.55
2023-01-11T02:34:17.918Z,14.02
2023-01-11T02:34:59.181Z,13.98
2023-01-11T02:35:36.397Z,16.08
2023-01-11T02:36:13.637Z,14.00
2023-01-11T02:36:45.021Z,13.95
2023-01-11T02:37:19.172Z,12.57
2023-01-11T02:37:59.567Z,13.93
2023-01-11T02:38:37.043Z,14.38
2023-01-11T02:39:14.730Z,11.95
2023-01-11T02:40:18.574Z,13.27
2023-01-11T02:40:55.694Z,12.68
2023-01-11T02:41:32.608Z,12.63
2023-01-11T02:42:09.475Z,13.07
2023-01-11T02:43:06.872Z,14.97
2023-01-11T02:43:57.004Z,12.68
2023-01-11T02:44:30.737Z,13.77
2023-01-11T02:45:20.864Z,14.07
2023-01-11T02:46:11.103Z,14.25
2023-01-11T02:46:48.727Z,13.88
2023-01-11T02:47:28.827Z,13.27
2023-01-11T02:48:02.352Z,14.07
2023-01-11T02:48:49.279Z,12.55
2023-01-11T02:49:23.913Z,12.30
2023-01-11T02:49:59.805Z,15.70
2023-01-11T02:50:31.144Z,14.17
2023-01-11T02:51:05.649Z,16.17
2023-01-11T02:51:42.681Z,15.02
2023-01-11T02:52:30.124Z,15.45
2023-01-11T02:53:04.598Z,14.27
2023-01-11T02:53:37.663Z,14.57
2023-01-11T02:54:10.179Z,12.80
2023-01-11T02:54:43.208Z,14.30
2023-01-11T02:55:16.679Z,12.10
2023-01-11T02:55:50.657Z,13.73
2023-01-11T02:56:24.692Z,15.82
2023-01-11T02:56:58.323Z,12.80
2023-01-11T02:57:30.629Z,12.68
2023-01-11T02:58:02.940Z,13.35
2023-01-11T02:58:36.328Z,14.35
2023-01-11T02:59:08.937Z,12.50
2023-01-11T02:59:40.629Z,14.80
2023-01-11T03:00:12.529Z,13.23
2023-01-11T03:00:44.428Z,12.60
2023-01-11T03:01:16.084Z,13.52
2023-01-11T03:01:48.620Z,14.82
2023-01-11T03:02:20.024Z,12.77
2023-01-11T03:03:08.067Z,14.40
2023-01-11T03:03:39.481Z,14.43
2023-01-11T03:04:22.307Z,13.10
2023-01-11T03:04:53.729Z,14.75
2023-01-11T03:05:25.260Z,14.95
2023-01-11T03:05:59.061Z,15.10
2023-01-11T03:06:34.527Z,12.27
2023-01-11T03:07:09.050Z,15.27
2023-01-11T03:07:49.548Z,14.93
2023-01-11T03:08:20.932Z,12.95
2023-01-11T03:09:04.521Z,13.43
2023-01-11T03:09:35.892Z,12.90
2023-01-11T03:10:16.540Z,13.63
2023-01-11T03:11:06.468Z,16.83
2023-01-11T03:11:50.192Z,12.45
2023-01-11T03:12:30.434Z,12.25
2023-01-11T03:13:07.952Z,13.20
2023-01-11T03:13:51.636Z,14.25
2023-01-11T03:14:29.369Z,13.82
2023-01-11T03:15:09.933Z,12.95
2023-01-11T03:15:44.306Z,12.02
2023-01-11T03:16:21.812Z,13.65
2023-01-11T03:16:59.723Z,14.37
2023-01-11T03:17:49.719Z,13.57
2023-01-11T03:18:30.282Z,13.02
2023-01-11T03:19:19.951Z,13.13
2023-01-11T03:19:56.295Z,14.00
2023-01-11T03:20:31.008Z,15.00
2023-01-11T03:21:14.726Z,14.15
2023-01-11T03:22:01.525Z,13.18
2023-01-11T03:22:55.910Z,13.52
2023-01-11T03:23:27.234Z,14.30
2023-01-11T03:24:03.435Z,14.55
2023-01-11T03:24:45.897Z,13.60
2023-01-11T03:25:20.131Z,14.27
2023-01-11T03:26:06.478Z,14.48
2023-01-11T03:26:37.906Z,14.05
2023-01-11T03:27:28.082Z,16.67
2023-01-11T03:28:20.308Z,15.45
2023-01-11T03:29:07.029Z,14.90
2023-01-11T03:29:57.023Z,15.25
2023-01-11T03:30:32.406Z,15.88
2023-01-11T03:31:11.857Z,14.75
2023-01-11T03:31:43.253Z,13.50
2023-01-11T03:32:22.181Z,14.25
2023-01-11T03:32:56.408Z,13.15
2023-01-11T03:33:34.885Z,15.90
2023-01-11T03:34:23.786Z,16.67
2023-01-11T03:34:58.247Z,15.75
2023-01-11T03:35:35.461Z,15.38
2023-01-11T03:36:17.122Z,14.57
2023-01-11T03:37:01.022Z,14.52
2023-01-11T03:37:35.529Z,15.80
2023-01-11T03:38:17.257Z,15.73
2023-01-11T03:38:51.561Z,13.55
2023-01-11T03:39:23.025Z,14.00
2023-01-11T03:40:17.521Z,15.07
2023-01-11T03:40:53.295Z,15.95
2023-01-11T03:41:27.605Z,13.10
2023-01-11T03:42:00.695Z,13.80
2023-01-11T03:42:34.104Z,14.53
2023-01-11T03:43:07.104Z,14.90
2023-01-11T03:43:41.173Z,14.20
2023-01-11T03:44:13.577Z,14.02
2023-01-11T03:44:47.766Z,14.10
2023-01-11T03:45:19.253Z,15.33
2023-01-11T03:46:10.733Z,14.30
2023-01-11T03:46:47.184Z,13.70
2023-01-11T03:47:19.688Z,14.48
2023-01-11T03:47:53.171Z,14.75
2023-01-11T03:48:31.011Z,14.17
2023-01-11T03:49:08.318Z,14.32
2023-01-11T03:49:48.744Z,14.27
2023-01-11T03:50:20.774Z,19.40
2023-01-11T03:50:52.418Z,12.95
2023-01-11T03:51:25.496Z,14.10
2023-01-11T03:51:58.991Z,13.00
2023-01-11T03:52:35.743Z,15.57
2023-01-11T03:53:07.846Z,12.65
2023-01-11T03:53:40.090Z,15.65
2023-01-11T03:54:16.862Z,14.23
2023-01-11T03:54:48.831Z,11.90
2023-01-11T03:55:22.201Z,12.77
2023-01-11T03:55:56.865Z,15.07
2023-01-11T03:56:48.470Z,14.52
2023-01-11T03:57:21.139Z,13.45
2023-01-11T03:57:53.434Z,14.65
2023-01-11T03:58:27.946Z,15.43
2023-01-11T03:58:59.351Z,14.63
2023-01-11T03:59:30.822Z,14.13
2023-01-11T04:00:02.570Z,13.57
2023-01-11T04:00:34.024Z,13.82
2023-01-11T04:01:05.608Z,12.68
2023-01-11T04:01:37.653Z,12.75
2023-01-11T04:02:19.699Z,13.65
2023-01-11T04:02:53.923Z,11.00
2023-01-11T04:03:27.409Z,14.00
2023-01-11T04:03:58.826Z,14.32
2023-01-11T04:04:30.290Z,13.02
2023-01-11T04:05:02.197Z,13.60
2023-01-11T04:05:34.814Z,12.98
2023-01-11T04:06:07.542Z,13.95
2023-01-11T04:06:39.079Z,14.43
2023-01-11T04:07:10.669Z,12.80
2023-01-11T04:07:42.119Z,14.27
2023-01-11T04:08:13.539Z,15.98
2023-01-11T04:08:44.875Z,14.43
2023-01-11T04:09:16.269Z,13.70
2023-01-11T04:09:47.722Z,14.90
2023-01-11T04:10:19.236Z,13.63
2023-01-11T04:10:50.601Z,12.52
2023-01-11T04:11:22.070Z,12.85
2023-01-11T04:11:53.493Z,14.88
2023-01-11T04:12:25.510Z,12.48
2023-01-11T04:12:57.088Z,12.68
2023-01-11T04:13:28.476Z,13.75
2023-01-11T04:13:59.858Z,11.83
2023-01-11T04:14:31.245Z,14.50
2023-01-11T04:15:02.781Z,13.55
2023-01-11T04:15:34.162Z,13.27
2023-01-11T04:16:05.742Z,12.80
2023-01-11T04:16:37.165Z,13.85
2023-01-11T04:17:08.586Z,12.77
2023-01-11T04:17:40.004Z,12.90
2023-01-11T04:18:11.479Z,13.98
2023-01-11T04:18:42.898Z,12.87
2023-01-11T04:19:14.281Z,12.65
2023-01-11T04:19:45.694Z,12.23
2023-01-11T04:20:17.105Z,12.95
2023-01-11T04:20:48.497Z,13.02
2023-01-11T04:21:19.876Z,11.52
2023-01-11T04:21:51.259Z,13.77
2023-01-11T04:22:22.651Z,14.63
2023-01-11T04:22:54.086Z,12.38
2023-01-11T04:23:25.538Z,11.90
2023-01-11T04:23:56.913Z,13.07
2023-01-11T04:24:28.346Z,12.07
2023-01-11T04:24:59.738Z,11.65
2023-01-11T04:25:31.219Z,13.27
2023-01-11T04:26:02.626Z,13.90
2023-01-11T04:26:34.061Z,13.07
2023-01-11T04:27:05.440Z,11.13
2023-01-11T04:27:36.829Z,11.65
2023-01-11T04:28:08.254Z,14.15
2023-01-11T04:28:39.642Z,12.95
2023-01-11T04:29:11.241Z,13.88
2023-01-11T04:29:42.626Z,12.13
2023-01-11T04:30:14.107Z,10.98
2023-01-11T04:30:45.488Z,10.73
2023-01-11T04:31:16.844Z,10.20
2023-01-11T04:31:48.324Z,11.57
2023-01-11T04:32:19.700Z,12.73
2023-01-11T04:32:51.294Z,11.15
2023-01-11T04:33:22.739Z,10.63
2023-01-11T04:33:54.113Z,12.00
2023-01-11T04:34:25.503Z,10.52
2023-01-11T04:34:56.903Z,10.23
2023-01-11T04:35:28.329Z,10.82
2023-01-11T04:36:03.602Z,12.13
2023-01-11T04:36:35.027Z,10.60
2023-01-11T04:37:06.431Z,10.70
2023-01-11T04:37:37.877Z,11.43
2023-01-11T04:38:09.309Z,10.43
2023-01-11T04:38:40.689Z,14.43
2023-01-11T04:39:12.124Z,12.32
2023-01-11T04:39:43.459Z,11.50
2023-01-11T04:40:14.991Z,11.00
2023-01-11T04:40:47.714Z,11.47
2023-01-11T04:41:19.101Z,10.27
2023-01-11T04:41:50.488Z,9.15
2023-01-11T04:42:21.882Z,11.25
2023-01-11T04:42:53.297Z,11.30
2023-01-11T04:43:24.760Z,10.27
2023-01-11T04:43:56.591Z,9.50
2023-01-11T04:44:27.936Z,10.40
2023-01-11T04:44:59.325Z,9.85
2023-01-11T04:45:30.840Z,13.77
2023-01-11T04:46:02.256Z,11.95
2023-01-11T04:46:33.730Z,11.57
2023-01-11T04:47:05.121Z,10.95
2023-01-11T04:47:36.554Z,11.43
2023-01-11T04:48:07.927Z,12.10
2023-01-11T04:48:40.455Z,11.32
2023-01-11T04:49:11.840Z,18.50
2023-01-11T04:49:43.431Z,15.23
2023-01-11T04:50:14.845Z,11.32
2023-01-11T04:50:48.484Z,11.10
2023-01-11T04:51:19.942Z,10.47
2023-01-11T04:51:51.330Z,11.73
2023-01-11T04:52:22.763Z,11.02
2023-01-11T04:52:54.156Z,11.13
2023-01-11T04:53:25.540Z,10.93
2023-01-11T04:53:57.034Z,11.55
2023-01-11T04:54:28.417Z,10.05
2023-01-11T04:54:59.795Z,12.23
2023-01-11T04:55:31.188Z,11.88
2023-01-11T04:56:03.443Z,9.27
2023-01-11T04:56:34.814Z,11.73
2023-01-11T04:57:06.827Z,10.00
2023-01-11T04:57:38.161Z,10.40
2023-01-11T04:58:09.543Z,11.10
2023-01-11T04:58:40.839Z,11.40
2023-01-11T04:59:12.323Z,11.05
2023-01-11T04:59:43.708Z,10.88
2023-01-11T05:00:15.311Z,12.80
2023-01-11T05:00:46.795Z,11.25
2023-01-11T05:01:18.901Z,10.27
2023-01-11T05:01:50.482Z,10.98
2023-01-11T05:02:21.878Z,10.50
2023-01-11T05:02:53.369Z,10.70
2023-01-11T05:03:24.847Z,11.73
2023-01-11T05:03:58.802Z,11.20
2023-01-11T05:04:30.573Z,11.57
2023-01-11T05:05:02.139Z,10.68
2023-01-11T05:05:33.521Z,11.10
2023-01-11T05:06:05.269Z,11.20
2023-01-11T05:06:36.771Z,11.32
2023-01-11T05:07:08.435Z,10.20
2023-01-11T05:07:39.875Z,11.30
2023-01-11T05:08:11.315Z,11.38
2023-01-11T05:08:49.159Z,10.07
2023-01-11T05:09:20.800Z,10.82
2023-01-11T05:09:52.255Z,10.95
2023-01-11T05:10:23.633Z,10.35
2023-01-11T05:10:59.918Z,11.55
2023-01-11T05:11:31.355Z,10.40
2023-01-11T05:12:02.908Z,11.02
2023-01-11T05:12:34.391Z,12.45
2023-01-11T05:13:05.776Z,10.95
2023-01-11T05:13:37.152Z,10.95
2023-01-11T05:14:08.590Z,10.15
2023-01-11T05:14:40.018Z,10.07
2023-01-11T05:15:11.514Z,11.07
2023-01-11T05:15:42.972Z,10.30
2023-01-11T05:16:21.668Z,10.90
2023-01-11T05:16:53.064Z,11.20
2023-01-11T05:17:24.489Z,11.98
2023-01-11T05:17:55.923Z,10.68
2023-01-11T05:18:27.310Z,11.45
2023-01-11T05:18:59.694Z,11.23
2023-01-11T05:19:31.107Z,11.43
2023-01-11T05:20:02.489Z,10.43
2023-01-11T05:20:33.932Z,11.70
2023-01-11T05:21:05.416Z,11.27
2023-01-11T05:21:38.190Z,9.80
2023-01-11T05:22:09.743Z,11.48
2023-01-11T05:22:41.109Z,10.60
2023-01-11T05:23:12.502Z,10.57
2023-01-11T05:23:43.961Z,10.93
2023-01-11T05:24:16.041Z,9.75
2023-01-11T05:24:47.454Z,10.25
2023-01-11T05:25:18.862Z,10.43
2023-01-11T05:25:50.247Z,9.05
2023-01-11T05:26:22.828Z,12.02
2023-01-11T05:26:54.206Z,10.50
2023-01-11T05:27:25.592Z,9.60
2023-01-11T05:27:57.023Z,11.23
2023-01-11T05:28:28.362Z,10.35
2023-01-11T05:29:00.820Z,10.60
2023-01-11T05:29:32.200Z,10.30
2023-01-11T05:30:03.745Z,11.75
2023-01-11T05:30:35.231Z,11.60
2023-01-11T05:31:06.669Z,11.30
2023-01-11T05:31:39.070Z,10.82
2023-01-11T05:32:10.516Z,11.27
2023-01-11T05:32:41.901Z,9.27
2023-01-11T05:33:13.344Z,10.50
2023-01-11T05:33:45.049Z,11.60
2023-01-11T05:34:16.883Z,11.23
2023-01-11T05:34:48.268Z,10.13
2023-01-11T05:35:19.643Z,10.50
2023-01-11T05:35:54.458Z,10.70
2023-01-11T05:36:26.879Z,10.50
2023-01-11T05:36:58.326Z,13.10
2023-01-11T05:37:29.759Z,11.07
2023-01-11T05:38:01.143Z,11.67
2023-01-11T05:38:32.709Z,12.40
2023-01-11T05:39:04.623Z,12.25
2023-01-11T05:39:36.024Z,11.65
2023-01-11T05:40:07.966Z,12.07
2023-01-11T05:40:39.352Z,12.82
2023-01-11T05:41:10.989Z,11.50
2023-01-11T05:41:42.597Z,11.88
2023-01-11T05:42:14.027Z,11.93
2023-01-11T05:42:45.763Z,10.73
2023-01-11T05:43:17.167Z,11.40
2023-01-11T05:43:49.454Z,11.05
2023-01-11T05:44:20.901Z,11.13
2023-01-11T05:44:52.280Z,10.57
2023-01-11T05:45:23.669Z,10.48
2023-01-11T05:45:56.297Z,11.45
2023-01-11T05:46:27.794Z,11.68
2023-01-11T05:46:59.371Z,12.00
2023-01-11T05:47:30.797Z,11.32
2023-01-11T05:48:02.236Z,11.45
2023-01-11T05:48:33.641Z,13.57
2023-01-11T05:49:05.163Z,12.88
2023-01-11T05:49:36.568Z,10.90
2023-01-11T05:50:08.291Z,13.48
2023-01-11T05:50:39.676Z,10.60
2023-01-11T05:51:11.234Z,11.05
2023-01-11T05:51:43.079Z,13.00
2023-01-11T05:52:14.428Z,13.43
2023-01-11T05:52:45.998Z,12.70
2023-01-11T05:53:17.788Z,11.52
2023-01-11T05:53:49.231Z,13.43
2023-01-11T05:54:20.617Z,12.27
2023-01-11T05:54:52.004Z,10.80
2023-01-11T05:55:23.484Z,11.77
2023-01-11T05:55:58.707Z,13.67
2023-01-11T05:56:30.206Z,12.50
2023-01-11T05:57:01.643Z,11.55
2023-01-11T05:57:33.024Z,11.75
2023-01-11T05:58:05.229Z,11.00
2023-01-11T05:58:36.610Z,13.27
2023-01-11T05:59:08.007Z,11.48
2023-01-11T05:59:39.415Z,12.82
2023-01-11T06:00:11.485Z,11.80
2023-01-11T06:00:42.876Z,9.87
2023-01-11T06:01:14.663Z,11.27
2023-01-11T06:01:46.247Z,12.68
2023-01-11T06:02:17.893Z,11.52
2023-01-11T06:02:49.431Z,11.82
2023-01-11T06:03:21.424Z,11.60
2023-01-11T06:03:52.895Z,12.55
2023-01-11T06:04:24.273Z,10.35
2023-01-11T06:04:55.711Z,11.20
2023-01-11T06:05:27.138Z,11.70
2023-01-11T06:05:59.260Z,10.60
2023-01-11T06:06:30.739Z,10.70
2023-01-11T06:07:02.209Z,11.27
2023-01-11T06:07:33.677Z,12.20
2023-01-11T06:08:05.195Z,10.82
2023-01-11T06:08:36.575Z,14.88
2023-01-11T06:09:08.023Z,13.93
2023-01-11T06:09:39.417Z,12.75
2023-01-11T06:10:11.045Z,10.90
2023-01-11T06:10:42.558Z,9.82
2023-01-11T06:11:14.296Z,11.15
2023-01-11T06:11:45.678Z,11.63
2023-01-11T06:12:17.157Z,10.27
2023-01-11T06:12:51.768Z,9.45
2023-01-11T06:13:24.353Z,10.90
2023-01-11T06:13:55.819Z,12.88
2023-01-11T06:14:27.257Z,12.18
2023-01-11T06:14:58.797Z,9.75
2023-01-11T06:15:30.181Z,11.68
2023-01-11T06:16:11.372Z,12.27
2023-01-11T06:16:42.857Z,11.63
2023-01-11T06:17:14.377Z,11.95
2023-01-11T06:17:45.875Z,11.80
2023-01-11T06:18:17.250Z,10.65
2023-01-11T06:18:49.442Z,11.32
2023-01-11T06:19:21.133Z,11.27
2023-01-11T06:19:52.586Z,13.10
2023-01-11T06:20:24.022Z,12.07
2023-01-11T06:20:56.081Z,10.97
2023-01-11T06:21:29.629Z,10.77
2023-01-11T06:22:01.016Z,12.65
2023-01-11T06:22:32.435Z,12.18
2023-01-11T06:23:03.945Z,11.82
2023-01-11T06:23:36.644Z,11.90
2023-01-11T06:24:08.130Z,10.32
2023-01-11T06:24:39.473Z,11.45
2023-01-11T06:25:10.857Z,12.45
2023-01-11T06:25:43.475Z,11.52
2023-01-11T06:26:18.234Z,12.02
2023-01-11T06:26:52.126Z,11.77
2023-01-11T06:27:23.478Z,10.23
2023-01-11T06:27:54.915Z,12.73
2023-01-11T06:28:26.390Z,11.32
2023-01-11T06:29:00.192Z,10.88
2023-01-11T06:29:31.676Z,11.98
2023-01-11T06:30:03.198Z,10.25
2023-01-11T06:30:34.677Z,11.20
2023-01-11T06:31:06.755Z,12.18
2023-01-11T06:31:38.223Z,11.88
2023-01-11T06:32:09.726Z,10.15
2023-01-11T06:32:41.164Z,11.45
2023-01-11T06:33:12.553Z,12.30
2023-01-11T06:33:44.043Z,12.63
2023-01-11T06:34:15.481Z,11.10
2023-01-11T06:34:46.912Z,12.48
2023-01-11T06:35:18.370Z,11.80
2023-01-11T06:35:51.013Z,11.18
2023-01-11T06:36:22.362Z,12.30
2023-01-11T06:36:53.812Z,10.70
2023-01-11T06:37:25.279Z,9.68
2023-01-11T06:37:56.661Z,11.32
2023-01-11T06:38:28.045Z,11.48
2023-01-11T06:38:59.539Z,12.25
2023-01-11T06:39:30.933Z,12.45
2023-01-11T06:40:02.365Z,11.68
2023-01-11T06:40:33.845Z,11.82
2023-01-11T06:41:05.950Z,14.00
2023-01-11T06:41:37.334Z,11.25
2023-01-11T06:42:08.731Z,10.00
2023-01-11T06:42:40.137Z,10.68
2023-01-11T06:43:11.508Z,11.70
2023-01-11T06:43:42.935Z,11.73
2023-01-11T06:44:14.380Z,11.23
2023-01-11T06:44:45.770Z,12.23
2023-01-11T06:45:17.212Z,11.38
2023-01-11T06:45:48.922Z,11.48
2023-01-11T06:46:20.575Z,9.90
2023-01-11T06:46:52.016Z,12.18
2023-01-11T06:47:23.377Z,10.10
2023-01-11T06:47:54.795Z,11.30
2023-01-11T06:48:26.652Z,12.20
2023-01-11T06:48:58.081Z,11.68
2023-01-11T06:49:29.479Z,10.40
2023-01-11T06:50:00.856Z,10.93
2023-01-11T06:50:32.306Z,10.57
2023-01-11T06:51:03.774Z,10.45
2023-01-11T06:51:35.156Z,11.77
2023-01-11T06:52:06.747Z,10.73
2023-01-11T06:52:38.132Z,11.27
2023-01-11T06:53:09.525Z,9.88
2023-01-11T06:53:41.842Z,9.98
2023-01-11T06:54:13.219Z,12.05
2023-01-11T06:54:44.640Z,11.25
2023-01-11T06:55:16.034Z,12.00
2023-01-11T06:55:54.253Z,12.10
2023-01-11T06:56:25.634Z,9.38
2023-01-11T06:56:57.005Z,11.00
2023-01-11T06:57:28.853Z,11.68
2023-01-11T06:58:00.240Z,11.00
2023-01-11T06:58:31.776Z,9.80
2023-01-11T06:59:03.390Z,10.60
2023-01-11T06:59:35.067Z,9.63
2023-01-11T07:00:07.215Z,9.85
2023-01-11T07:00:38.616Z,10.18
2023-01-11T07:01:10.443Z,10.98
2023-01-11T07:01:41.966Z,10.73
2023-01-11T07:02:13.423Z,9.02
2023-01-11T07:02:45.308Z,9.63
2023-01-11T07:03:16.764Z,9.25
2023-01-11T07:03:48.208Z,10.15
2023-01-11T07:04:19.624Z,10.05
2023-01-11T07:04:51.067Z,10.07
2023-01-11T07:05:22.593Z,9.60
2023-01-11T07:05:54.669Z,10.82
2023-01-11T07:06:26.091Z,10.30
2023-01-11T07:06:57.591Z,10.65
2023-01-11T07:07:28.982Z,9.15
2023-01-11T07:08:00.516Z,10.45
2023-01-11T07:08:31.904Z,9.82
2023-01-11T07:09:03.291Z,10.82
2023-01-11T07:09:34.679Z,10.10
2023-01-11T07:10:11.133Z,9.00
2023-01-11T07:10:42.630Z,9.70
2023-01-11T07:11:14.054Z,10.27
2023-01-11T07:11:45.556Z,8.27
2023-01-11T07:12:16.929Z,9.90
2023-01-11T07:12:48.424Z,11.05
2023-01-11T07:13:20.319Z,8.52
2023-01-11T07:13:51.714Z,10.80
2023-01-11T07:14:23.093Z,10.10
2023-01-11T07:14:54.475Z,10.27
2023-01-11T07:15:25.872Z,9.52
2023-01-11T07:15:57.724Z,8.18
2023-01-11T07:16:29.090Z,11.15
2023-01-11T07:17:00.473Z,10.73